createdAt,value
2023-03-23T15:58:16.649Z,78.10
2023-03-23T16:00:49.470Z,78.49
2023-03-23T16:03:22.570Z,78.15
2023-03-23T16:05:52.415Z,78.80
2023-03-23T16:08:21.677Z,78.35
2023-03-23T16:10:53.002Z,78.32
2023-03-23T16:13:23.041Z,78.54
2023-03-23T16:15:52.890Z,78.79
2023-03-23T16:18:24.087Z,78.40
2023-03-23T16:20:53.700Z,78.40
2023-03-23T16:23:22.893Z,78.19
2023-03-23T16:25:53.895Z,78.84
2023-03-23T16:28:23.137Z,78.65
2023-03-23T16:30:52.744Z,78.31
2023-03-23T16:33:22.639Z,77.99
2023-03-23T16:35:52.038Z,78.30
2023-03-23T16:38:21.592Z,78.40
2023-03-23T16:40:52.611Z,78.61
2023-03-23T16:43:22.450Z,78.24
2023-03-23T16:45:52.012Z,78.26
2023-03-23T16:48:21.266Z,78.12
2023-03-23T16:50:52.490Z,78.03
2023-03-23T16:53:21.935Z,78.48
2023-03-23T16:55:55.017Z,78.92
2023-03-23T16:58:27.593Z,79.19
2023-03-23T17:00:57.132Z,77.70
2023-03-23T17:03:26.630Z,76.63
2023-03-23T17:05:56.604Z,78.56
2023-03-23T17:08:26.212Z,79.23
2023-03-23T17:10:57.586Z,80.03
2023-03-23T17:13:28.478Z,80.95
2023-03-23T17:16:01.761Z,80.04
2023-03-23T17:18:31.643Z,81.97
2023-03-23T17:21:01.681Z,81.65
2023-03-23T17:23:31.034Z,81.89
2023-03-23T17:26:02.022Z,82.26
2023-03-23T17:28:31.381Z,81.75
2023-03-23T17:31:00.924Z,81.20
2023-03-23T17:33:30.524Z,80.59
2023-03-23T17:36:00.144Z,82.10
2023-03-23T17:38:29.459Z,82.08
2023-03-23T17:41:01.633Z,82.23
2023-03-23T17:43:31.950Z,82.73
2023-03-23T17:46:02.565Z,83.05
2023-03-23T17:48:31.926Z,83.52
2023-03-23T17:51:02.510Z,83.04
2023-03-23T17:53:32.025Z,82.25
2023-03-23T17:56:04.464Z,83.15
2023-03-23T17:58:35.290Z,83.76
2023-03-23T18:01:05.685Z,82.85
2023-03-23T18:03:35.260Z,83.11
2023-03-23T18:06:08.299Z,83.68
2023-03-23T18:08:38.774Z,83.28
2023-03-23T18:11:10.932Z,84.03
2023-03-23T18:13:40.579Z,82.98
2023-03-23T18:16:11.242Z,84.96
2023-03-23T18:18:40.724Z,84.96
2023-03-23T18:21:12.106Z,84.15
2023-03-23T18:23:52.941Z,84.21
2023-03-23T18:26:28.507Z,85.99
2023-03-23T18:28:58.662Z,84.99
2023-03-23T18:31:29.054Z,85.71
2023-03-23T18:33:58.488Z,86.51
2023-03-23T18:36:28.902Z,86.14
2023-03-23T18:38:59.222Z,85.96
2023-03-23T18:41:30.434Z,85.56
2023-03-23T18:44:00.457Z,86.35
2023-03-23T18:46:29.892Z,87.38
2023-03-23T18:48:59.360Z,86.19
2023-03-23T18:51:31.053Z,85.72
2023-03-23T18:54:00.402Z,85.61
2023-03-23T18:56:31.627Z,85.13
2023-03-23T18:59:01.008Z,86.03
2023-03-23T19:01:30.981Z,85.49
2023-03-23T19:04:00.364Z,85.64
2023-03-23T19:06:30.213Z,85.17
2023-03-23T19:08:59.610Z,85.22
2023-03-23T19:11:30.857Z,86.68
2023-03-23T19:14:02.837Z,85.58
2023-03-23T19:16:35.923Z,86.14
2023-03-23T19:19:08.311Z,85.75
2023-03-23T19:21:39.837Z,85.73
2023-03-23T19:24:10.308Z,86.14
2023-03-23T19:26:43.433Z,87.54
2023-03-23T19:31:48.495Z,87.41
2023-03-23T19:34:18.226Z,88.33
2023-03-23T19:36:53.714Z,88.82
2023-03-23T19:39:25.508Z,86.97
2023-03-23T19:41:56.934Z,87.97
2023-03-23T19:44:26.562Z,87.67
2023-03-23T19:46:56.726Z,87.55
2023-03-23T19:49:26.765Z,87.47
2023-03-23T19:52:09.079Z,87.79
2023-03-23T19:54:42.287Z,87.68
2023-03-23T19:57:14.139Z,87.64
2023-03-23T19:59:44.301Z,87.47
2023-03-23T20:02:14.989Z,88.24
2023-03-23T20:04:45.503Z,88.00
2023-03-23T20:07:15.714Z,87.66
2023-03-23T20:09:45.075Z,87.67
2023-03-23T20:12:16.904Z,88.30
2023-03-23T20:14:46.278Z,87.77
2023-03-23T20:17:15.796Z,88.35
2023-03-23T20:19:45.136Z,88.09
2023-03-23T20:22:15.607Z,87.95
2023-03-23T20:24:47.297Z,87.72
2023-03-23T20:27:19.030Z,87.92
2023-03-23T20:29:48.413Z,87.32
2023-03-23T20:32:17.911Z,86.86
2023-03-23T20:34:49.361Z,86.68
2023-03-23T20:37:20.868Z,86.75
2023-03-23T20:39:50.322Z,86.19
2023-03-23T20:42:21.608Z,86.41
2023-03-23T20:44:50.870Z,86.53
2023-03-23T20:47:20.555Z,86.43
2023-03-23T20:49:53.318Z,86.71
2023-03-23T20:52:24.018Z,86.79
2023-03-23T20:54:53.606Z,86.07
2023-03-23T20:57:25.484Z,86.86
2023-03-23T20:59:55.488Z,86.20
2023-03-23T21:02:26.287Z,85.96
2023-03-23T21:04:55.626Z,85.97
2023-03-23T21:07:27.567Z,85.56
2023-03-23T21:09:58.116Z,85.97
2023-03-23T21:12:29.149Z,85.81
2023-03-23T21:14:58.471Z,85.98
2023-03-23T21:17:28.043Z,85.80
2023-03-23T21:19:57.598Z,85.45
2023-03-23T21:22:27.462Z,85.82
2023-03-23T21:24:56.736Z,86.16
2023-03-23T21:27:27.720Z,86.55
2023-03-23T21:29:59.525Z,86.81
2023-03-23T21:32:29.680Z,87.01
2023-03-23T21:35:02.517Z,86.32
2023-03-23T21:37:32.707Z,86.06
2023-03-23T21:40:01.980Z,86.13
2023-03-23T21:42:33.002Z,85.82
2023-03-23T21:45:03.981Z,85.54
2023-03-23T21:47:33.890Z,86.50
2023-03-23T21:50:04.877Z,85.80
2023-03-23T21:52:34.993Z,85.68
2023-03-23T21:55:04.756Z,85.72
2023-03-23T21:57:37.135Z,85.53
2023-03-23T22:00:08.383Z,87.70
2023-03-23T22:02:38.014Z,88.07
2023-03-23T22:05:07.598Z,87.20
2023-03-23T22:07:39.262Z,87.56
2023-03-23T22:10:10.414Z,87.46
2023-03-23T22:12:42.368Z,89.10
2023-03-23T22:15:15.245Z,89.41
2023-03-23T22:17:45.061Z,89.19
2023-03-23T22:20:15.796Z,90.19
2023-03-23T22:22:45.535Z,88.82
2023-03-23T22:25:15.048Z,88.59
2023-03-23T22:27:46.120Z,87.49
2023-03-23T22:30:16.204Z,86.92
2023-03-23T22:32:45.907Z,86.42
2023-03-23T22:35:15.203Z,86.46
2023-03-23T22:37:44.850Z,86.22
2023-03-23T22:40:14.354Z,86.58
2023-03-23T22:42:45.463Z,86.06
2023-03-23T22:45:14.905Z,85.75
2023-03-23T22:47:44.511Z,85.65
2023-03-23T22:50:13.852Z,87.25
2023-03-23T22:52:43.429Z,88.30
2023-03-23T22:55:12.787Z,87.10
2023-03-23T22:57:42.365Z,87.44
2023-03-23T23:00:15.646Z,87.33
2023-03-23T23:02:45.681Z,86.67
2023-03-23T23:05:15.789Z,87.15
2023-03-23T23:07:45.424Z,87.41
2023-03-23T23:10:14.803Z,87.90
2023-03-23T23:12:45.956Z,87.69
2023-03-23T23:15:16.856Z,87.79
2023-03-23T23:17:46.665Z,88.79
2023-03-23T23:20:17.030Z,89.21
2023-03-23T23:22:47.179Z,89.20
2023-03-23T23:25:16.506Z,89.16
2023-03-23T23:27:46.673Z,88.47
2023-03-23T23:30:17.508Z,89.48
2023-03-23T23:32:47.382Z,89.43
2023-03-23T23:35:16.834Z,89.28
2023-03-23T23:37:46.463Z,88.45
2023-03-23T23:40:16.914Z,87.93
2023-03-23T23:42:48.984Z,88.73
2023-03-23T23:45:20.657Z,89.72
2023-03-23T23:47:50.462Z,88.97
2023-03-23T23:50:20.079Z,89.34
2023-03-23T23:52:50.793Z,88.88
2023-03-23T23:55:20.286Z,88.97
2023-03-23T23:57:50.863Z,90.10
